Details for Air Canada Jazz at CYUL




Go Back


Latest METAR
Local Time

CYUL 240700Z 31006KT 15SM BKN120 BKN240 13/M02 A3006 RMK AC5CI2 SLP182

24/05/2018, 03:51:42

Description
Results
Air Canada Jazz Logo
Number of Pilots based at CYUL
1 Pilots Based here
Number of Air Canada Jazz Flights Departed from CYUL
0 Flights Departed
Number of Air Canada Jazz Flights Arrived at CYUL
1 Flights Arrived
Number of Air Canada Jazz Schedules Departing from CYUL
0 Schedules
Number of Air Canada Jazz Schedules Arriving at CYUL
0 Schedules
Number of Air Canada Jazz Schedules Departing from CYUL availible today
0 Schedules Today
Number of Air Canada Jazz Schedules Arriving at CYUL availible today
0 Schedules Today
Average Landing Rate at CYUL
-186 fpm
Air Canada Jazz Average Landing Rate at CYUL
-155 fpm
Total Fuel Purchased at CYUL by Air Canada Jazz
0.00 kgs / 0.00 lbs

Pilots Based at CYUL


Pilot ID
Pilot Name
Pilot Rank
No. of Flights
No. of Flying Hours
Pierre Castonguay
3
3.38
Content